sensor_id;sensor_type;location;lat;lon;timestamp;P1;durP1;ratioP1;P2;durP2;ratioP2
32236;SDS011;18726;44.732;10.550;2023-08-07T00:01:50;4.10;;;2.75;;
32236;SDS011;18726;44.732;10.550;2023-08-07T00:04:53;5.32;;;2.80;;
32236;SDS011;18726;44.732;10.550;2023-08-07T00:07:57;5.13;;;3.53;;
32236;SDS011;18726;44.732;10.550;2023-08-07T00:11:07;8.05;;;3.65;;
32236;SDS011;18726;44.732;10.550;2023-08-07T00:14:11;4.95;;;2.75;;
32236;SDS011;18726;44.732;10.550;2023-08-07T00:17:14;11.85;;;4.78;;
32236;SDS011;18726;44.732;10.550;2023-08-07T00:20:18;7.95;;;4.57;;
32236;SDS011;18726;44.732;10.550;2023-08-07T00:23:22;5.13;;;3.50;;
32236;SDS011;18726;44.732;10.550;2023-08-07T00:26:26;6.18;;;3.20;;
32236;SDS011;18726;44.732;10.550;2023-08-07T00:29:30;8.32;;;5.15;;
32236;SDS011;18726;44.732;10.550;2023-08-07T00:32:33;12.48;;;5.88;;
32236;SDS011;18726;44.732;10.550;2023-08-07T00:35:37;20.95;;;5.13;;
32236;SDS011;18726;44.732;10.550;2023-08-07T00:38:41;8.75;;;4.18;;
32236;SDS011;18726;44.732;10.550;2023-08-07T00:41:44;8.82;;;4.50;;
32236;SDS011;18726;44.732;10.550;2023-08-07T00:44:48;4.95;;;3.40;;
32236;SDS011;18726;44.732;10.550;2023-08-07T00:47:52;5.78;;;3.58;;
32236;SDS011;18726;44.732;10.550;2023-08-07T00:50:56;10.52;;;4.65;;
32236;SDS011;18726;44.732;10.550;2023-08-07T00:54:00;7.60;;;3.47;;
32236;SDS011;18726;44.732;10.550;2023-08-07T00:57:09;4.00;;;3.15;;
32236;SDS011;18726;44.732;10.550;2023-08-07T01:00:15;7.05;;;3.45;;
32236;SDS011;18726;44.732;10.550;2023-08-07T01:03:20;7.82;;;3.78;;
32236;SDS011;18726;44.732;10.550;2023-08-07T01:06:24;10.60;;;3.63;;
32236;SDS011;18726;44.732;10.550;2023-08-07T01:09:28;3.78;;;2.88;;
32236;SDS011;18726;44.732;10.550;2023-08-07T01:12:33;6.05;;;3.80;;
32236;SDS011;18726;44.732;10.550;2023-08-07T01:15:41;6.47;;;3.40;;
32236;SDS011;18726;44.732;10.550;2023-08-07T01:18:45;9.20;;;4.20;;
32236;SDS011;18726;44.732;10.550;2023-08-07T01:21:50;6.60;;;4.13;;
32236;SDS011;18726;44.732;10.550;2023-08-07T01:25:06;5.07;;;3.55;;
32236;SDS011;18726;44.732;10.550;2023-08-07T01:28:17;4.53;;;3.72;;
32236;SDS011;18726;44.732;10.550;2023-08-07T01:31:29;8.27;;;5.22;;
32236;SDS011;18726;44.732;10.550;2023-08-07T01:34:38;10.88;;;5.55;;
32236;SDS011;18726;44.732;10.550;2023-08-07T01:37:44;12.18;;;6.70;;
32236;SDS011;18726;44.732;10.550;2023-08-07T01:40:49;12.63;;;7.05;;
32236;SDS011;18726;44.732;10.550;2023-08-07T01:43:56;11.20;;;5.85;;
32236;SDS011;18726;44.732;10.550;2023-08-07T01:47:01;15.27;;;6.07;;
32236;SDS011;18726;44.732;10.550;2023-08-07T01:50:05;8.57;;;6.05;;
32236;SDS011;18726;44.732;10.550;2023-08-07T01:53:09;10.55;;;5.82;;
32236;SDS011;18726;44.732;10.550;2023-08-07T01:56:13;12.45;;;6.35;;
32236;SDS011;18726;44.732;10.550;2023-08-07T01:59:17;12.60;;;7.25;;
32236;SDS011;18726;44.732;10.550;2023-08-07T02:02:20;8.65;;;6.30;;
32236;SDS011;18726;44.732;10.550;2023-08-07T02:05:24;8.98;;;5.15;;
32236;SDS011;18726;44.732;10.550;2023-08-07T02:08:28;8.40;;;5.78;;
32236;SDS011;18726;44.732;10.550;2023-08-07T02:11:32;12.32;;;6.60;;
32236;SDS011;18726;44.732;10.550;2023-08-07T02:14:35;17.73;;;4.95;;
32236;SDS011;18726;44.732;10.550;2023-08-07T02:17:39;13.38;;;6.28;;
32236;SDS011;18726;44.732;10.550;2023-08-07T02:20:44;9.43;;;4.32;;
32236;SDS011;18726;44.732;10.550;2023-08-07T02:23:49;12.50;;;6.47;;
32236;SDS011;18726;44.732;10.550;2023-08-07T02:26:53;9.13;;;5.55;;
32236;SDS011;18726;44.732;10.550;2023-08-07T02:29:57;7.43;;;6.47;;
32236;SDS011;18726;44.732;10.550;2023-08-07T02:33:01;7.90;;;6.25;;
32236;SDS011;18726;44.732;10.550;2023-08-07T02:36:05;9.15;;;6.00;;
32236;SDS011;18726;44.732;10.550;2023-08-07T02:39:08;8.23;;;6.82;;
32236;SDS011;18726;44.732;10.550;2023-08-07T02:42:12;7.38;;;6.32;;
32236;SDS011;18726;44.732;10.550;2023-08-07T02:45:16;9.23;;;6.63;;
32236;SDS011;18726;44.732;10.550;2023-08-07T02:48:19;8.20;;;6.80;;
32236;SDS011;18726;44.732;10.550;2023-08-07T02:51:23;9.50;;;6.43;;
32236;SDS011;18726;44.732;10.550;2023-08-07T02:54:27;10.65;;;6.10;;
32236;SDS011;18726;44.732;10.550;2023-08-07T02:57:30;7.68;;;5.30;;
32236;SDS011;18726;44.732;10.550;2023-08-07T03:00:34;4.95;;;4.45;;
32236;SDS011;18726;44.732;10.550;2023-08-07T03:03:39;3.65;;;3.35;;
32236;SDS011;18726;44.732;10.550;2023-08-07T03:06:43;3.88;;;3.50;;
32236;SDS011;18726;44.732;10.550;2023-08-07T03:09:46;5.78;;;3.88;;
32236;SDS011;18726;44.732;10.550;2023-08-07T03:12:50;4.78;;;2.80;;
32236;SDS011;18726;44.732;10.550;2023-08-07T03:16:12;3.30;;;3.10;;
32236;SDS011;18726;44.732;10.550;2023-08-07T03:19:16;3.22;;;2.97;;
32236;SDS011;18726;44.732;10.550;2023-08-07T03:22:19;3.17;;;2.88;;
32236;SDS011;18726;44.732;10.550;2023-08-07T03:25:23;4.40;;;3.05;;
32236;SDS011;18726;44.732;10.550;2023-08-07T03:28:27;5.60;;;3.90;;
32236;SDS011;18726;44.732;10.550;2023-08-07T03:31:31;3.38;;;3.15;;
32236;SDS011;18726;44.732;10.550;2023-08-07T03:34:35;4.55;;;3.05;;
32236;SDS011;18726;44.732;10.550;2023-08-07T03:37:38;3.15;;;2.95;;
32236;SDS011;18726;44.732;10.550;2023-08-07T03:40:42;3.22;;;2.92;;
32236;SDS011;18726;44.732;10.550;2023-08-07T03:43:46;5.05;;;3.40;;
32236;SDS011;18726;44.732;10.550;2023-08-07T03:46:50;4.10;;;3.25;;
32236;SDS011;18726;44.732;10.550;2023-08-07T03:49:59;3.72;;;3.10;;
32236;SDS011;18726;44.732;10.550;2023-08-07T03:53:03;3.85;;;3.50;;
32236;SDS011;18726;44.732;10.550;2023-08-07T03:56:07;3.70;;;3.30;;
32236;SDS011;18726;44.732;10.550;2023-08-07T03:59:12;4.55;;;3.13;;
32236;SDS011;18726;44.732;10.550;2023-08-07T04:02:16;3.72;;;3.30;;
32236;SDS011;18726;44.732;10.550;2023-08-07T04:05:19;3.70;;;3.40;;
32236;SDS011;18726;44.732;10.550;2023-08-07T04:08:24;6.57;;;3.72;;
32236;SDS011;18726;44.732;10.550;2023-08-07T04:11:29;3.67;;;3.30;;
32236;SDS011;18726;44.732;10.550;2023-08-07T04:14:33;3.30;;;3.03;;
32236;SDS011;18726;44.732;10.550;2023-08-07T04:17:37;6.47;;;3.15;;
32236;SDS011;18726;44.732;10.550;2023-08-07T04:20:41;3.45;;;3.25;;
32236;SDS011;18726;44.732;10.550;2023-08-07T04:23:45;3.38;;;3.08;;
32236;SDS011;18726;44.732;10.550;2023-08-07T04:26:49;4.35;;;2.97;;
32236;SDS011;18726;44.732;10.550;2023-08-07T04:29:53;3.05;;;2.75;;
32236;SDS011;18726;44.732;10.550;2023-08-07T04:32:57;3.05;;;2.80;;
32236;SDS011;18726;44.732;10.550;2023-08-07T04:36:00;3.80;;;3.13;;
32236;SDS011;18726;44.732;10.550;2023-08-07T04:39:04;16.85;;;3.00;;
32236;SDS011;18726;44.732;10.550;2023-08-07T04:42:08;4.88;;;2.95;;
32236;SDS011;18726;44.732;10.550;2023-08-07T04:45:12;5.20;;;2.55;;
32236;SDS011;18726;44.732;10.550;2023-08-07T04:48:16;6.13;;;2.72;;
32236;SDS011;18726;44.732;10.550;2023-08-07T04:51:20;4.93;;;2.50;;
32236;SDS011;18726;44.732;10.550;2023-08-07T04:54:24;2.40;;;2.20;;
32236;SDS011;18726;44.732;10.550;2023-08-07T04:57:28;2.33;;;2.10;;
32236;SDS011;18726;44.732;10.550;2023-08-07T05:00:31;5.10;;;2.20;;
32236;SDS011;18726;44.732;10.550;2023-08-07T05:03:34;2.67;;;2.45;;
32236;SDS011;18726;44.732;10.550;2023-08-07T05:06:38;4.78;;;2.35;;
32236;SDS011;18726;44.732;10.550;2023-08-07T05:09:42;1.85;;;1.52;;
32236;SDS011;18726;44.732;10.550;2023-08-07T05:12:46;3.35;;;1.60;;
32236;SDS011;18726;44.732;10.550;2023-08-07T05:15:50;4.60;;;2.00;;
32236;SDS011;18726;44.732;10.550;2023-08-07T05:18:54;2.60;;;1.83;;
32236;SDS011;18726;44.732;10.550;2023-08-07T05:21:57;1.63;;;1.45;;
32236;SDS011;18726;44.732;10.550;2023-08-07T05:25:01;1.38;;;0.98;;
32236;SDS011;18726;44.732;10.550;2023-08-07T05:28:05;3.75;;;1.55;;
32236;SDS011;18726;44.732;10.550;2023-08-07T05:31:09;1.75;;;1.30;;
32236;SDS011;18726;44.732;10.550;2023-08-07T05:34:13;4.07;;;1.77;;
32236;SDS011;18726;44.732;10.550;2023-08-07T05:37:16;3.13;;;1.55;;
32236;SDS011;18726;44.732;10.550;2023-08-07T05:40:20;1.77;;;1.55;;
32236;SDS011;18726;44.732;10.550;2023-08-07T05:43:24;2.25;;;1.73;;
32236;SDS011;18726;44.732;10.550;2023-08-07T05:46:27;2.28;;;1.38;;
32236;SDS011;18726;44.732;10.550;2023-08-07T05:49:31;2.38;;;1.25;;
32236;SDS011;18726;44.732;10.550;2023-08-07T05:52:34;1.30;;;1.20;;
32236;SDS011;18726;44.732;10.550;2023-08-07T05:55:41;3.50;;;1.40;;
32236;SDS011;18726;44.732;10.550;2023-08-07T05:58:44;1.77;;;1.20;;
32236;SDS011;18726;44.732;10.550;2023-08-07T06:01:49;5.07;;;1.05;;
32236;SDS011;18726;44.732;10.550;2023-08-07T06:04:54;4.20;;;1.30;;
32236;SDS011;18726;44.732;10.550;2023-08-07T06:07:58;2.67;;;1.05;;
32236;SDS011;18726;44.732;10.550;2023-08-07T06:11:01;2.50;;;1.17;;
32236;SDS011;18726;44.732;10.550;2023-08-07T06:14:06;5.93;;;1.05;;
32236;SDS011;18726;44.732;10.550;2023-08-07T06:17:09;2.67;;;0.90;;
32236;SDS011;18726;44.732;10.550;2023-08-07T06:20:13;2.05;;;1.10;;
32236;SDS011;18726;44.732;10.550;2023-08-07T06:23:19;1.77;;;1.13;;
32236;SDS011;18726;44.732;10.550;2023-08-07T06:26:22;3.15;;;1.17;;
32236;SDS011;18726;44.732;10.550;2023-08-07T06:29:26;4.82;;;1.40;;
32236;SDS011;18726;44.732;10.550;2023-08-07T06:32:30;4.05;;;1.00;;
32236;SDS011;18726;44.732;10.550;2023-08-07T06:35:37;3.05;;;1.42;;
32236;SDS011;18726;44.732;10.550;2023-08-07T06:38:46;4.35;;;0.70;;
32236;SDS011;18726;44.732;10.550;2023-08-07T06:41:50;3.35;;;0.70;;
32236;SDS011;18726;44.732;10.550;2023-08-07T06:44:57;1.83;;;0.70;;
32236;SDS011;18726;44.732;10.550;2023-08-07T06:48:00;1.73;;;0.70;;
32236;SDS011;18726;44.732;10.550;2023-08-07T06:51:04;3.03;;;0.77;;
32236;SDS011;18726;44.732;10.550;2023-08-07T06:54:07;1.65;;;0.50;;
32236;SDS011;18726;44.732;10.550;2023-08-07T06:57:11;2.05;;;0.90;;
32236;SDS011;18726;44.732;10.550;2023-08-07T07:00:16;2.88;;;0.50;;
32236;SDS011;18726;44.732;10.550;2023-08-07T07:03:19;1.00;;;0.40;;
32236;SDS011;18726;44.732;10.550;2023-08-07T07:06:23;0.77;;;0.50;;
32236;SDS011;18726;44.732;10.550;2023-08-07T07:09:29;0.60;;;0.55;;
32236;SDS011;18726;44.732;10.550;2023-08-07T07:12:32;1.15;;;0.70;;
32236;SDS011;18726;44.732;10.550;2023-08-07T07:15:36;2.33;;;0.70;;
32236;SDS011;18726;44.732;10.550;2023-08-07T07:18:39;2.60;;;0.70;;
32236;SDS011;18726;44.732;10.550;2023-08-07T07:21:43;0.70;;;0.50;;
32236;SDS011;18726;44.732;10.550;2023-08-07T07:24:47;0.40;;;0.40;;
32236;SDS011;18726;44.732;10.550;2023-08-07T07:27:51;0.52;;;0.43;;
32236;SDS011;18726;44.732;10.550;2023-08-07T07:30:55;1.02;;;0.43;;
32236;SDS011;18726;44.732;10.550;2023-08-07T07:33:58;1.27;;;0.60;;
32236;SDS011;18726;44.732;10.550;2023-08-07T07:37:03;2.78;;;0.30;;
32236;SDS011;18726;44.732;10.550;2023-08-07T07:40:07;1.00;;;0.52;;
32236;SDS011;18726;44.732;10.550;2023-08-07T07:43:11;0.47;;;0.30;;
32236;SDS011;18726;44.732;10.550;2023-08-07T07:46:14;0.82;;;0.50;;
32236;SDS011;18726;44.732;10.550;2023-08-07T07:49:18;0.52;;;0.40;;
32236;SDS011;18726;44.732;10.550;2023-08-07T07:52:22;0.75;;;0.40;;
32236;SDS011;18726;44.732;10.550;2023-08-07T07:55:26;1.45;;;0.55;;
32236;SDS011;18726;44.732;10.550;2023-08-07T07:58:30;0.63;;;0.40;;
32236;SDS011;18726;44.732;10.550;2023-08-07T08:01:34;0.50;;;0.40;;
32236;SDS011;18726;44.732;10.550;2023-08-07T08:04:39;0.38;;;0.30;;
32236;SDS011;18726;44.732;10.550;2023-08-07T08:07:43;0.55;;;0.55;;
32236;SDS011;18726;44.732;10.550;2023-08-07T08:10:46;0.57;;;0.43;;
32236;SDS011;18726;44.732;10.550;2023-08-07T08:13:50;0.50;;;0.50;;
32236;SDS011;18726;44.732;10.550;2023-08-07T08:16:55;2.80;;;0.45;;
32236;SDS011;18726;44.732;10.550;2023-08-07T08:19:59;4.00;;;0.73;;
32236;SDS011;18726;44.732;10.550;2023-08-07T08:23:03;3.35;;;0.90;;
32236;SDS011;18726;44.732;10.550;2023-08-07T08:26:06;1.45;;;0.52;;
32236;SDS011;18726;44.732;10.550;2023-08-07T08:29:10;1.92;;;0.77;;
32236;SDS011;18726;44.732;10.550;2023-08-07T08:32:17;0.82;;;0.70;;
32236;SDS011;18726;44.732;10.550;2023-08-07T08:35:21;0.90;;;0.77;;
32236;SDS011;18726;44.732;10.550;2023-08-07T08:38:25;0.88;;;0.57;;
32236;SDS011;18726;44.732;10.550;2023-08-07T08:41:32;1.70;;;0.60;;
32236;SDS011;18726;44.732;10.550;2023-08-07T08:44:36;1.35;;;0.82;;
32236;SDS011;18726;44.732;10.550;2023-08-07T08:47:42;0.50;;;0.50;;
32236;SDS011;18726;44.732;10.550;2023-08-07T08:50:48;1.27;;;0.65;;
32236;SDS011;18726;44.732;10.550;2023-08-07T08:53:54;2.08;;;0.70;;
32236;SDS011;18726;44.732;10.550;2023-08-07T08:56:59;2.83;;;0.95;;
32236;SDS011;18726;44.732;10.550;2023-08-07T09:00:04;2.30;;;0.93;;
32236;SDS011;18726;44.732;10.550;2023-08-07T09:03:21;1.27;;;0.75;;
32236;SDS011;18726;44.732;10.550;2023-08-07T09:06:25;0.63;;;0.50;;
32236;SDS011;18726;44.732;10.550;2023-08-07T09:09:31;1.35;;;0.60;;
32236;SDS011;18726;44.732;10.550;2023-08-07T09:12:35;0.70;;;0.60;;
32236;SDS011;18726;44.732;10.550;2023-08-07T09:15:43;1.40;;;0.98;;
32236;SDS011;18726;44.732;10.550;2023-08-07T09:18:53;1.30;;;0.80;;
32236;SDS011;18726;44.732;10.550;2023-08-07T09:22:01;1.20;;;0.82;;
32236;SDS011;18726;44.732;10.550;2023-08-07T09:25:04;2.42;;;1.30;;
32236;SDS011;18726;44.732;10.550;2023-08-07T09:28:09;1.65;;;1.20;;
32236;SDS011;18726;44.732;10.550;2023-08-07T09:31:16;7.32;;;2.30;;
32236;SDS011;18726;44.732;10.550;2023-08-07T09:34:20;1.67;;;1.00;;
32236;SDS011;18726;44.732;10.550;2023-08-07T09:37:24;1.48;;;0.80;;
32236;SDS011;18726;44.732;10.550;2023-08-07T09:40:29;0.65;;;0.65;;
32236;SDS011;18726;44.732;10.550;2023-08-07T09:43:34;1.20;;;0.75;;
32236;SDS011;18726;44.732;10.550;2023-08-07T09:46:43;1.30;;;0.95;;
32236;SDS011;18726;44.732;10.550;2023-08-07T09:49:47;1.20;;;0.70;;
32236;SDS011;18726;44.732;10.550;2023-08-07T09:52:51;2.15;;;0.70;;
32236;SDS011;18726;44.732;10.550;2023-08-07T09:55:55;1.20;;;0.95;;
32236;SDS011;18726;44.732;10.550;2023-08-07T09:58:59;4.88;;;0.85;;
32236;SDS011;18726;44.732;10.550;2023-08-07T10:02:03;4.65;;;0.88;;
32236;SDS011;18726;44.732;10.550;2023-08-07T10:05:08;1.35;;;0.55;;
32236;SDS011;18726;44.732;10.550;2023-08-07T10:08:12;2.20;;;0.70;;
32236;SDS011;18726;44.732;10.550;2023-08-07T10:11:16;1.95;;;0.90;;
32236;SDS011;18726;44.732;10.550;2023-08-07T10:14:21;0.85;;;0.70;;
32236;SDS011;18726;44.732;10.550;2023-08-07T10:17:25;0.70;;;0.68;;
32236;SDS011;18726;44.732;10.550;2023-08-07T10:20:30;1.38;;;0.65;;
32236;SDS011;18726;44.732;10.550;2023-08-07T10:23:35;2.15;;;0.70;;
32236;SDS011;18726;44.732;10.550;2023-08-07T10:26:44;0.60;;;0.60;;
32236;SDS011;18726;44.732;10.550;2023-08-07T10:29:49;1.48;;;0.68;;
32236;SDS011;18726;44.732;10.550;2023-08-07T10:32:55;1.48;;;0.93;;
32236;SDS011;18726;44.732;10.550;2023-08-07T10:36:02;1.42;;;1.05;;
32236;SDS011;18726;44.732;10.550;2023-08-07T10:39:12;2.88;;;0.80;;
32236;SDS011;18726;44.732;10.550;2023-08-07T10:42:18;0.63;;;0.63;;
32236;SDS011;18726;44.732;10.550;2023-08-07T10:45:22;3.17;;;0.63;;
32236;SDS011;18726;44.732;10.550;2023-08-07T10:48:27;0.80;;;0.70;;
32236;SDS011;18726;44.732;10.550;2023-08-07T10:51:31;1.38;;;0.90;;
32236;SDS011;18726;44.732;10.550;2023-08-07T10:54:39;1.48;;;0.95;;
32236;SDS011;18726;44.732;10.550;2023-08-07T10:57:47;1.85;;;0.93;;
32236;SDS011;18726;44.732;10.550;2023-08-07T11:00:52;1.30;;;0.93;;
32236;SDS011;18726;44.732;10.550;2023-08-07T11:04:16;4.35;;;1.20;;
32236;SDS011;18726;44.732;10.550;2023-08-07T11:07:27;1.70;;;0.75;;
32236;SDS011;18726;44.732;10.550;2023-08-07T11:10:33;2.80;;;0.80;;
32236;SDS011;18726;44.732;10.550;2023-08-07T11:13:37;2.75;;;1.00;;
32236;SDS011;18726;44.732;10.550;2023-08-07T11:16:41;1.00;;;0.70;;
32236;SDS011;18726;44.732;10.550;2023-08-07T11:19:47;1.50;;;1.02;;
32236;SDS011;18726;44.732;10.550;2023-08-07T11:22:51;0.80;;;0.80;;
32236;SDS011;18726;44.732;10.550;2023-08-07T11:25:55;1.08;;;0.85;;
32236;SDS011;18726;44.732;10.550;2023-08-07T11:28:59;0.85;;;0.60;;
32236;SDS011;18726;44.732;10.550;2023-08-07T11:32:03;0.88;;;0.80;;
32236;SDS011;18726;44.732;10.550;2023-08-07T11:35:08;1.20;;;1.10;;
32236;SDS011;18726;44.732;10.550;2023-08-07T11:38:12;1.88;;;0.80;;
32236;SDS011;18726;44.732;10.550;2023-08-07T11:41:16;1.00;;;0.90;;
32236;SDS011;18726;44.732;10.550;2023-08-07T11:44:22;2.58;;;0.90;;
32236;SDS011;18726;44.732;10.550;2023-08-07T11:47:26;3.30;;;0.80;;
32236;SDS011;18726;44.732;10.550;2023-08-07T11:50:30;1.00;;;0.85;;
32236;SDS011;18726;44.732;10.550;2023-08-07T11:53:38;0.73;;;0.70;;
32236;SDS011;18726;44.732;10.550;2023-08-07T11:56:43;2.78;;;0.73;;
32236;SDS011;18726;44.732;10.550;2023-08-07T11:59:50;0.80;;;0.80;;
32236;SDS011;18726;44.732;10.550;2023-08-07T12:02:54;1.63;;;0.77;;
32236;SDS011;18726;44.732;10.550;2023-08-07T12:05:58;0.98;;;0.93;;
32236;SDS011;18726;44.732;10.550;2023-08-07T12:09:05;9.63;;;4.47;;
32236;SDS011;18726;44.732;10.550;2023-08-07T12:12:18;3.05;;;1.02;;
32236;SDS011;18726;44.732;10.550;2023-08-07T12:15:22;1.98;;;0.80;;
32236;SDS011;18726;44.732;10.550;2023-08-07T12:18:26;1.63;;;1.00;;
32236;SDS011;18726;44.732;10.550;2023-08-07T12:21:30;2.20;;;1.40;;
32236;SDS011;18726;44.732;10.550;2023-08-07T12:24:36;0.75;;;0.75;;
32236;SDS011;18726;44.732;10.550;2023-08-07T12:27:40;0.90;;;0.90;;
32236;SDS011;18726;44.732;10.550;2023-08-07T12:30:47;2.72;;;0.77;;
32236;SDS011;18726;44.732;10.550;2023-08-07T12:33:51;0.98;;;0.82;;
32236;SDS011;18726;44.732;10.550;2023-08-07T12:36:54;2.28;;;1.13;;
32236;SDS011;18726;44.732;10.550;2023-08-07T12:39:58;0.82;;;0.82;;
32236;SDS011;18726;44.732;10.550;2023-08-07T12:43:03;5.55;;;1.00;;
32236;SDS011;18726;44.732;10.550;2023-08-07T12:46:07;1.48;;;0.88;;
32236;SDS011;18726;44.732;10.550;2023-08-07T12:49:10;1.92;;;1.20;;
32236;SDS011;18726;44.732;10.550;2023-08-07T12:52:15;1.13;;;0.90;;
32236;SDS011;18726;44.732;10.550;2023-08-07T12:55:18;1.48;;;1.00;;
32236;SDS011;18726;44.732;10.550;2023-08-07T12:58:22;7.43;;;0.98;;
32236;SDS011;18726;44.732;10.550;2023-08-07T13:01:29;1.23;;;1.08;;
32236;SDS011;18726;44.732;10.550;2023-08-07T13:04:32;1.27;;;1.17;;
32236;SDS011;18726;44.732;10.550;2023-08-07T13:07:37;1.20;;;1.10;;
32236;SDS011;18726;44.732;10.550;2023-08-07T13:10:41;1.08;;;0.98;;
32236;SDS011;18726;44.732;10.550;2023-08-07T13:13:45;1.15;;;1.00;;
32236;SDS011;18726;44.732;10.550;2023-08-07T13:16:49;0.90;;;0.90;;
32236;SDS011;18726;44.732;10.550;2023-08-07T13:19:54;2.08;;;1.10;;
32236;SDS011;18726;44.732;10.550;2023-08-07T13:22:58;1.85;;;1.15;;
32236;SDS011;18726;44.732;10.550;2023-08-07T13:26:02;1.65;;;1.25;;
32236;SDS011;18726;44.732;10.550;2023-08-07T13:29:06;0.90;;;0.80;;
32236;SDS011;18726;44.732;10.550;2023-08-07T13:32:10;1.38;;;1.13;;
32236;SDS011;18726;44.732;10.550;2023-08-07T13:35:14;1.08;;;0.90;;
32236;SDS011;18726;44.732;10.550;2023-08-07T13:38:17;1.30;;;1.20;;
32236;SDS011;18726;44.732;10.550;2023-08-07T13:41:21;1.25;;;1.10;;
32236;SDS011;18726;44.732;10.550;2023-08-07T13:44:25;1.13;;;1.02;;
32236;SDS011;18726;44.732;10.550;2023-08-07T13:47:29;0.90;;;0.90;;
32236;SDS011;18726;44.732;10.550;2023-08-07T13:50:33;1.88;;;1.00;;
32236;SDS011;18726;44.732;10.550;2023-08-07T13:53:37;1.63;;;1.20;;
32236;SDS011;18726;44.732;10.550;2023-08-07T13:56:41;1.08;;;0.98;;
32236;SDS011;18726;44.732;10.550;2023-08-07T13:59:44;1.90;;;1.17;;
32236;SDS011;18726;44.732;10.550;2023-08-07T14:02:48;1.95;;;1.20;;
32236;SDS011;18726;44.732;10.550;2023-08-07T14:05:52;2.22;;;1.33;;
32236;SDS011;18726;44.732;10.550;2023-08-07T14:08:56;2.88;;;1.05;;
32236;SDS011;18726;44.732;10.550;2023-08-07T14:12:00;1.63;;;1.08;;
32236;SDS011;18726;44.732;10.550;2023-08-07T14:15:05;2.17;;;1.30;;
32236;SDS011;18726;44.732;10.550;2023-08-07T14:18:08;2.92;;;1.23;;
32236;SDS011;18726;44.732;10.550;2023-08-07T14:21:14;1.48;;;1.13;;
32236;SDS011;18726;44.732;10.550;2023-08-07T14:24:18;1.30;;;1.20;;
32236;SDS011;18726;44.732;10.550;2023-08-07T14:27:21;1.27;;;1.17;;
32236;SDS011;18726;44.732;10.550;2023-08-07T14:30:25;3.92;;;0.95;;
32236;SDS011;18726;44.732;10.550;2023-08-07T14:33:28;1.20;;;1.10;;
32236;SDS011;18726;44.732;10.550;2023-08-07T14:36:32;1.98;;;1.35;;
32236;SDS011;18726;44.732;10.550;2023-08-07T14:39:35;2.15;;;1.23;;
32236;SDS011;18726;44.732;10.550;2023-08-07T14:42:39;1.17;;;1.08;;
32236;SDS011;18726;44.732;10.550;2023-08-07T14:45:43;10.18;;;1.33;;
32236;SDS011;18726;44.732;10.550;2023-08-07T14:48:46;1.08;;;0.98;;
32236;SDS011;18726;44.732;10.550;2023-08-07T14:51:50;1.95;;;1.48;;
32236;SDS011;18726;44.732;10.550;2023-08-07T14:54:54;1.15;;;1.05;;
32236;SDS011;18726;44.732;10.550;2023-08-07T14:58:00;1.30;;;1.20;;
32236;SDS011;18726;44.732;10.550;2023-08-07T15:01:04;1.77;;;1.40;;
32236;SDS011;18726;44.732;10.550;2023-08-07T15:04:08;1.85;;;1.35;;
32236;SDS011;18726;44.732;10.550;2023-08-07T15:07:13;1.48;;;1.00;;
32236;SDS011;18726;44.732;10.550;2023-08-07T15:10:17;1.75;;;1.20;;
32236;SDS011;18726;44.732;10.550;2023-08-07T15:13:21;1.27;;;1.10;;
32236;SDS011;18726;44.732;10.550;2023-08-07T15:16:25;1.35;;;1.25;;
32236;SDS011;18726;44.732;10.550;2023-08-07T15:19:29;1.42;;;1.33;;
32236;SDS011;18726;44.732;10.550;2023-08-07T15:22:32;1.85;;;1.15;;
32236;SDS011;18726;44.732;10.550;2023-08-07T15:25:37;1.17;;;1.08;;
32236;SDS011;18726;44.732;10.550;2023-08-07T15:28:41;1.60;;;1.45;;
32236;SDS011;18726;44.732;10.550;2023-08-07T15:31:45;2.25;;;1.30;;
32236;SDS011;18726;44.732;10.550;2023-08-07T15:34:48;1.05;;;0.95;;
32236;SDS011;18726;44.732;10.550;2023-08-07T15:37:52;3.50;;;1.45;;
32236;SDS011;18726;44.732;10.550;2023-08-07T15:40:56;2.55;;;1.17;;
32236;SDS011;18726;44.732;10.550;2023-08-07T15:43:59;1.52;;;1.30;;
32236;SDS011;18726;44.732;10.550;2023-08-07T15:47:02;1.35;;;1.20;;
32236;SDS011;18726;44.732;10.550;2023-08-07T15:50:07;1.25;;;1.02;;
32236;SDS011;18726;44.732;10.550;2023-08-07T15:53:12;1.90;;;1.45;;
32236;SDS011;18726;44.732;10.550;2023-08-07T15:56:15;1.40;;;1.30;;
32236;SDS011;18726;44.732;10.550;2023-08-07T15:59:19;1.33;;;1.20;;
32236;SDS011;18726;44.732;10.550;2023-08-07T16:02:22;4.30;;;1.65;;
32236;SDS011;18726;44.732;10.550;2023-08-07T16:05:26;1.33;;;1.20;;
32236;SDS011;18726;44.732;10.550;2023-08-07T16:08:30;1.48;;;1.38;;
32236;SDS011;18726;44.732;10.550;2023-08-07T16:11:34;1.20;;;1.10;;
32236;SDS011;18726;44.732;10.550;2023-08-07T16:14:38;1.90;;;1.25;;
32236;SDS011;18726;44.732;10.550;2023-08-07T16:17:42;1.67;;;1.13;;
32236;SDS011;18726;44.732;10.550;2023-08-07T16:20:47;2.40;;;1.35;;
32236;SDS011;18726;44.732;10.550;2023-08-07T16:23:50;2.03;;;1.35;;
32236;SDS011;18726;44.732;10.550;2023-08-07T16:26:54;1.95;;;1.60;;
32236;SDS011;18726;44.732;10.550;2023-08-07T16:29:59;3.85;;;3.00;;
32236;SDS011;18726;44.732;10.550;2023-08-07T16:33:07;4.82;;;1.95;;
32236;SDS011;18726;44.732;10.550;2023-08-07T16:36:11;4.45;;;1.20;;
32236;SDS011;18726;44.732;10.550;2023-08-07T16:39:14;1.10;;;1.00;;
32236;SDS011;18726;44.732;10.550;2023-08-07T16:42:18;1.20;;;1.10;;
32236;SDS011;18726;44.732;10.550;2023-08-07T16:45:22;1.55;;;1.40;;
32236;SDS011;18726;44.732;10.550;2023-08-07T16:48:28;3.55;;;1.30;;
32236;SDS011;18726;44.732;10.550;2023-08-07T16:51:32;2.28;;;1.55;;
32236;SDS011;18726;44.732;10.550;2023-08-07T16:54:36;1.30;;;1.20;;
32236;SDS011;18726;44.732;10.550;2023-08-07T16:57:39;1.42;;;1.33;;
32236;SDS011;18726;44.732;10.550;2023-08-07T17:00:43;2.92;;;1.27;;
32236;SDS011;18726;44.732;10.550;2023-08-07T17:03:46;1.65;;;1.05;;
32236;SDS011;18726;44.732;10.550;2023-08-07T17:06:50;1.65;;;1.20;;
32236;SDS011;18726;44.732;10.550;2023-08-07T17:09:54;4.90;;;1.55;;
32236;SDS011;18726;44.732;10.550;2023-08-07T17:12:57;3.33;;;1.48;;
32236;SDS011;18726;44.732;10.550;2023-08-07T17:16:02;1.60;;;1.40;;
32236;SDS011;18726;44.732;10.550;2023-08-07T17:19:07;1.35;;;1.25;;
32236;SDS011;18726;44.732;10.550;2023-08-07T17:22:10;2.13;;;1.55;;
32236;SDS011;18726;44.732;10.550;2023-08-07T17:25:14;4.22;;;1.40;;
32236;SDS011;18726;44.732;10.550;2023-08-07T17:28:17;2.28;;;1.30;;
32236;SDS011;18726;44.732;10.550;2023-08-07T17:31:21;4.60;;;1.75;;
32236;SDS011;18726;44.732;10.550;2023-08-07T17:34:25;1.95;;;1.25;;
32236;SDS011;18726;44.732;10.550;2023-08-07T17:37:29;4.25;;;1.70;;
32236;SDS011;18726;44.732;10.550;2023-08-07T17:40:33;2.83;;;1.48;;
32236;SDS011;18726;44.732;10.550;2023-08-07T17:43:37;3.00;;;1.40;;
32236;SDS011;18726;44.732;10.550;2023-08-07T17:46:41;5.30;;;1.50;;
32236;SDS011;18726;44.732;10.550;2023-08-07T17:49:45;2.63;;;1.80;;
32236;SDS011;18726;44.732;10.550;2023-08-07T17:52:49;1.80;;;1.50;;
32236;SDS011;18726;44.732;10.550;2023-08-07T17:55:53;4.07;;;2.10;;
32236;SDS011;18726;44.732;10.550;2023-08-07T17:58:57;3.75;;;2.13;;
32236;SDS011;18726;44.732;10.550;2023-08-07T18:02:02;3.67;;;2.38;;
32236;SDS011;18726;44.732;10.550;2023-08-07T18:05:06;1.92;;;1.80;;
32236;SDS011;18726;44.732;10.550;2023-08-07T18:08:10;3.67;;;2.70;;
32236;SDS011;18726;44.732;10.550;2023-08-07T18:11:14;1.73;;;1.63;;
32236;SDS011;18726;44.732;10.550;2023-08-07T18:14:18;4.63;;;2.00;;